Latest Weather Observations for Cape Grim

IDT60801

Issued at 10:31 am EDT Monday 30 March 2015 (issued every 30 minutes, with the page automatically refreshed every 10 minutes)

About weather observations | Map of weather stations | Latest weather observations for TAS | Other Formats
Station Details ID: 091331 Name: CAPE GRIM Lat: -40.68 Lon: 144.69 Height: 86.0 m
Data from the previous 72 hours. | See also: Recent months at Cape Grim
Date/Time
EDT
Temp
°C
App
Temp
°C
Dew
Point
Rel
Hum
%
Delta-T
°C
Wind Press
QNH
hPa
Press
MSL
hPa
Rain
since 9 am
mm
Dir
 
Spd
km/h
Gust
km/h
Spd
kts
Gust
kts
30/10:30am 15.7 12.1 13.2 85 1.4 W 24 33 13 18 1022.8 1022.7 0.0
30/10:00am 15.7 12.2 13.5 87 1.2 W 24 33 13 18 1022.7 1022.6 0.0
30/09:34am 15.3 11.5 13.5 89 1.0 W 26 35 14 19 1022.2 1022.1 0.0
30/09:30am 15.0 11.1 13.2 89 1.0 W 26 35 14 19 1022.1 1022.0 0.0
30/09:10am 15.4 10.9 13.8 90 0.9 W 30 37 16 20 1022.0 1021.9 0.0
30/09:00am 15.2 11.0 13.6 90 0.9 WNW 28 37 15 20 1021.9 1021.8 0.2
30/08:30am 15.5 11.0 13.7 89 1.0 WNW 30 37 16 20 1021.5 1021.4 0.0
30/08:00am 15.5 10.6 13.7 89 1.0 WNW 32 39 17 21 1021.4 1021.3 0.0
30/07:30am 15.5 11.0 13.7 89 1.0 WNW 30 39 16 21 1021.1 1021.0 0.0
30/07:00am 15.5 10.6 13.7 89 1.0 WNW 32 39 17 21 1020.9 1020.8 0.0
30/06:30am 15.5 11.4 13.7 89 1.0 WNW 28 33 15 18 1020.6 1020.5 0.0
30/05:30am 15.5 11.4 13.7 89 1.0 WNW 28 35 15 19 1020.4 1020.3 0.0
30/05:01am 15.4 10.5 13.6 89 1.0 WNW 32 37 17 20 1020.4 1020.3 0.0
30/05:00am 15.4 10.5 13.6 89 1.0 WNW 32 37 17 20 1020.4 1020.3 0.0
30/04:44am 15.4 10.4 13.4 88 1.1 WNW 32 37 17 20 1020.4 1020.3 0.0
30/04:30am 15.4 10.5 13.6 89 1.0 WNW 32 39 17 21 1020.5 1020.4 0.0
30/04:00am 15.4 10.3 13.6 89 1.0 WNW 33 41 18 22 1020.4 1020.3 0.0
30/03:30am 15.5 10.7 13.9 90 0.9 WNW 32 39 17 21 1020.5 1020.4 0.0
30/03:00am 15.7 10.9 13.9 89 1.0 WNW 32 37 17 20 1020.7 1020.6 0.0
30/02:30am 15.8 11.4 14.0 89 1.0 WNW 30 35 16 19 1020.8 1020.7 0.0
30/02:00am 15.6 11.0 13.6 88 1.1 WNW 30 37 16 20 1020.9 1020.8 0.0
30/01:30am 15.5 11.3 13.5 88 1.1 WNW 28 33 15 18 1021.0 1020.9 0.0
30/01:17am 15.5 11.3 13.5 88 1.1 WNW 28 35 15 19 1021.0 1020.9 0.0
30/01:00am 15.3 11.0 13.3 88 1.1 WNW 28 32 15 17 1021.0 1020.9 0.0
30/12:34am 15.5 10.9 13.5 88 1.1 WNW 30 37 16 20 1021.0 1020.9 0.0
30/12:30am 15.4 10.8 13.4 88 1.1 WNW 30 37 16 20 1021.0 1020.9 0.0
 
Date/Time
EDT
Temp
°C
App
Temp
°C
Dew
Point
Rel
Hum
%
Delta-T
°C
Wind Press
QNH
hPa
Press
MSL
hPa
Rain
since 9 am
mm
Dir
 
Spd
km/h
Gust
km/h
Spd
kts
Gust
kts
29/11:30pm 15.6 10.5 13.6 88 1.1 WNW 33 39 18 21 1021.3 1021.2 0.0
29/11:00pm 15.4 9.9 13.6 89 1.0 WNW 35 43 19 23 1021.3 1021.2 0.0
29/10:30pm 15.4 10.5 13.6 89 1.0 WNW 32 39 17 21 1021.2 1021.1 0.0
29/10:00pm 15.3 11.1 13.5 89 1.0 WNW 28 35 15 19 1021.1 1021.0 0.0
29/09:30pm 15.5 11.4 13.7 89 1.0 WNW 28 33 15 18 1021.0 1020.9 0.0
29/09:00pm 15.3 10.6 13.3 88 1.1 WNW 30 39 16 21 1020.7 1020.6 0.0
29/08:30pm 15.5 10.9 13.5 88 1.1 WNW 30 37 16 20 1020.5 1020.4 0.0
29/08:00pm 15.4 10.4 13.4 88 1.1 W 32 41 17 22 1020.3 1020.2 0.0
29/07:30pm 15.4 10.1 13.2 87 1.2 W 33 41 18 22 1020.0 1019.9 0.0
29/07:00pm 15.5 10.4 13.0 85 1.4 W 32 43 17 23 1019.8 1019.7 0.0
29/06:51pm 15.7 11.1 13.4 86 1.3 W 30 41 16 22 1019.8 1019.7 0.0
29/06:34pm 15.7 10.1 13.2 85 1.4 W 35 44 19 24 1019.7 1019.6 0.0
29/06:30pm 15.8 10.6 13.3 85 1.4 W 33 43 18 23 1019.6 1019.5 0.0
29/06:00pm 16.0 10.9 13.1 83 1.6 WNW 32 43 17 23 1019.2 1019.3 0.0
29/05:30pm 16.2 10.5 13.1 82 1.7 W 35 46 19 25 1019.4 1019.3 0.0
29/05:00pm 16.1 10.3 12.8 81 1.8 W 35 48 19 26 1019.3 1019.2 0.0
29/04:30pm 16.9 11.2 13.0 78 2.2 WNW 35 44 19 24 1019.2 1019.1 0.0
29/04:00pm 16.9 11.2 13.0 78 2.2 W 35 46 19 25 1019.3 1019.2 0.0
29/03:30pm 16.7 10.2 12.8 78 2.2 W 39 48 21 26 1019.4 1019.3 0.0
29/03:00pm 17.3 10.9 13.2 77 2.3 WNW 39 48 21 26 1019.4 1019.3 0.0
29/02:30pm 17.5 11.5 13.4 77 2.3 WNW 37 48 20 26 1019.4 1019.3 0.0
29/02:00pm 17.6 11.7 13.5 77 2.3 WNW 37 48 20 26 1019.5 1019.4 0.0
29/01:30pm 17.4 10.9 12.9 75 2.5 WNW 39 46 21 25 1019.5 1019.4 0.0
29/01:00pm 17.2 11.0 12.7 75 2.5 WNW 37 44 20 24 1019.6 1019.5 0.0
29/12:30pm 17.2 11.5 13.1 77 2.3 WNW 35 46 19 25 1019.7 1019.6 0.0
29/12:00pm 16.9 11.0 12.4 75 2.5 WNW 35 43 19 23 1019.7 1019.6 0.0
29/11:30am 16.9 11.3 13.2 79 2.1 WNW 35 44 19 24 1019.8 1019.7 0.0
29/11:00am 16.7 10.5 12.7 77 2.2 WNW 37 50 20 27 1019.8 1019.7 0.0
29/10:30am 15.8 9.3 11.8 77 2.2 W 37 48 20 26 1019.7 1019.6 0.0
29/10:00am 15.4 8.1 11.6 78 2.1 WNW 41 54 22 29 1019.5 1019.4 0.0
29/09:30am 15.5 8.2 11.7 78 2.1 WNW 41 52 22 28 1019.3 1019.2 0.0
29/09:00am 15.3 8.5 11.9 80 1.8 WNW 39 50 21 27 1019.1 1019.0 0.0
29/08:30am 15.2 8.9 11.2 77 2.1 WNW 35 46 19 25 1019.1 1019.0 0.0
29/08:00am 15.1 8.6 10.5 74 2.4 WNW 35 43 19 23 1018.9 1018.8 0.0
29/07:30am 14.8 9.2 10.2 74 2.4 WNW 30 43 16 23 1018.8 1018.7 0.0
29/07:00am 14.7 8.7 10.1 74 2.4 WNW 32 39 17 21 1018.8 1018.7 0.0
29/06:30am 14.5 8.4 10.3 76 2.2 WNW 33 44 18 24 1018.7 1018.6 0.0
29/06:00am 14.7 8.8 10.3 75 2.3 W 32 44 17 24 1018.6 1018.5 0.0
29/05:30am 14.5 7.1 9.9 74 2.4 W 39 50 21 27 1018.6 1018.5 0.0
29/05:00am 14.3 7.7 9.9 75 2.3 WNW 35 43 19 23 1018.5 1018.4 0.0
29/04:30am 14.2 9.1 10.6 79 1.9 W 28 44 15 24 1018.3 1018.1 0.0
29/04:15am 14.8 7.9 10.4 75 2.3 W 37 56 20 30 1018.6 1018.5 0.0
29/04:00am 14.6 7.5 9.4 71 2.7 WNW 37 48 20 26 1018.4 1018.3 0.0
29/03:30am 14.4 7.6 9.4 72 2.6 WNW 35 46 19 25 1018.5 1018.4 0.0
29/03:00am 14.4 7.2 9.2 71 2.7 WNW 37 52 20 28 1018.7 1018.6 0.0
29/02:54am 14.3 7.8 9.1 71 2.7 WNW 33 52 18 28 1018.7 1018.6 0.0
29/02:30am 14.5 8.1 9.3 71 2.7 WNW 33 44 18 24 1018.9 1018.8 0.0
29/02:00am 14.4 7.1 8.8 69 2.8 WNW 37 46 20 25 1019.1 1019.0 0.0
29/01:30am 14.1 7.8 8.9 71 2.6 WNW 32 43 17 23 1019.4 1019.3 0.0
29/01:00am 13.9 8.0 8.9 72 2.5 WNW 30 37 16 20 1019.6 1019.5 0.0
29/12:48am 14.1 8.6 9.1 72 2.6 WNW 28 46 15 25 1019.6 1019.5 0.0
29/12:30am 13.8 7.4 8.6 71 2.6 WNW 32 41 17 22 1019.8 1019.7 0.0
29/12:00am 13.5 7.2 8.8 73 2.4 W 32 44 17 24 1020.3 1020.2 0.0
 
Date/Time
EDT
Temp
°C
App
Temp
°C
Dew
Point
Rel
Hum
%
Delta-T
°C
Wind Press
QNH
hPa
Press
MSL
hPa
Rain
since 9 am
mm
Dir
 
Spd
km/h
Gust
km/h
Spd
kts
Gust
kts
28/11:30pm 13.8 7.8 8.6 71 2.6 WNW 30 41 16 22 1020.4 1020.3 0.0
28/11:00pm 13.6 8.5 9.1 74 2.3 WNW 26 39 14 21 1020.6 1020.5 0.0
28/10:30pm 13.5 8.0 9.0 74 2.3 WNW 28 35 15 19 1020.8 1020.7 0.0
28/10:00pm 13.6 9.2 9.1 74 2.3 WNW 22 30 12 16 1021.1 1021.0 0.0
28/09:30pm 13.7 9.4 9.2 74 2.3 WNW 22 30 12 16 1021.1 1021.0 0.0
28/09:00pm 13.6 9.6 8.9 73 2.4 W 20 28 11 15 1021.0 1020.9 0.0
28/08:30pm 13.1 8.9 8.2 72 2.4 W 20 32 11 17 1021.0 1020.9 0.0
28/08:00pm 13.0 9.0 8.9 76 2.1 W 20 32 11 17 1021.0 1020.9 0.0
28/07:30pm 12.8 10.7 9.6 81 1.6 W 11 22 6 12 1020.8 1020.7 0.0
28/07:00pm 12.4 8.7 9.4 82 1.5 W 19 28 10 15 1021.0 1020.9 0.0
28/06:30pm 13.3 7.6 8.4 72 2.5 W 28 41 15 22 1021.0 1020.9 0.0
28/06:00pm 13.5 9.1 9.0 74 2.3 W 22 32 12 17 1021.2 1021.1 0.0
28/05:30pm 13.2 9.9 9.6 79 1.8 W 17 26 9 14 1021.2 1021.1 0.0
28/05:00pm 13.2 10.0 9.8 80 1.7 W 17 26 9 14 1021.4 1021.3 0.0
28/04:30pm 13.7 10.7 10.5 81 1.7 W 17 26 9 14 1021.7 1021.6 0.0
28/04:00pm 12.9 9.3 10.4 85 1.3 WSW 20 32 11 17 1021.9 1021.8 0.0
28/03:30pm 13.8 10.2 10.0 78 2.0 W 19 32 10 17 1022.0 1021.9 0.0
28/03:00pm 13.0 9.4 10.4 84 1.3 W 20 32 11 17 1022.3 1022.2 0.0
28/02:30pm 13.2 9.8 10.4 83 1.5 W 19 26 10 14 1022.3 1022.2 0.0
28/02:00pm 13.9 10.8 10.3 79 1.9 W 17 26 9 14 1022.5 1022.4 0.0
28/01:30pm 13.6 10.5 10.2 80 1.8 W 17 30 9 16 1022.9 1022.8 0.0
28/01:00pm 13.8 10.5 9.5 75 2.2 WSW 17 28 9 15 1023.0 1022.9 0.0
28/12:30pm 13.6 10.4 9.8 78 2.0 WSW 17 28 9 15 1023.3 1023.2 0.0
28/12:00pm 13.3 10.0 9.4 77 2.0 WSW 17 26 9 14 1023.6 1023.5 0.0
28/11:30am 13.5 10.3 10.1 80 1.8 WSW 17 28 9 15 1023.9 1023.8 0.0
28/11:00am 13.5 9.9 10.5 82 1.6 WSW 20 35 11 19 1023.8 1023.7 0.0
28/10:30am 13.4 10.5 9.5 77 2.0 WSW 15 26 8 14 1023.7 1023.6 0.0
28/10:00am 12.9 9.6 9.7 81 1.6 SW 17 20 9 11 1023.9 1023.8 0.0
28/09:30am 12.9 9.3 10.6 86 1.2 SW 20 28 11 15 1023.9 1023.8 0.0
28/09:00am 11.7 7.5 9.9 89 0.9 SW 22 30 12 16 1023.8 1023.7 0.8
28/08:30am 11.7 7.2 9.9 89 0.9 SW 24 32 13 17 1023.6 1023.5 0.8
28/08:17am 11.6 6.7 9.9 89 0.9 SW 26 32 14 17 1023.4 1023.3 0.8
28/08:00am 11.9 8.2 10.0 88 1.0 SW 20 30 11 16 1023.2 1023.1 0.6
28/07:30am 11.8 7.6 9.9 88 1.0 SW 22 30 12 16 1022.9 1022.8 0.6
28/07:00am 12.0 6.7 9.9 87 1.1 SW 28 35 15 19 1022.8 1022.7 0.6
28/06:30am 11.6 7.0 9.5 87 1.1 SW 24 35 13 19 1022.6 1022.5 0.6
28/06:00am 12.0 6.7 9.9 87 1.1 SW 28 35 15 19 1022.5 1022.4 0.4
28/05:30am 11.5 6.5 9.6 88 1.0 SW 26 37 14 20 1022.4 1022.3 0.4
28/05:00am 12.1 7.4 9.1 82 1.5 SW 24 33 13 18 1022.2 1022.1 0.4
28/04:30am 12.6 7.6 9.4 81 1.6 SW 26 35 14 19 1022.2 1022.1 0.4
28/04:00am 12.4 6.1 9.1 80 1.7 SW 32 39 17 21 1022.3 1022.2 0.4
28/03:30am 11.7 7.5 9.6 87 1.1 SSW 22 30 12 16 1022.5 1022.4 0.4
28/03:00am 12.4 6.3 9.8 84 1.3 SW 32 39 17 21 1022.7 1022.6 0.4
28/02:30am 11.5 5.6 9.1 85 1.2 SW 30 39 16 21 1022.7 1022.6 0.4
28/02:00am 11.8 5.1 9.5 86 1.2 SW 35 44 19 24 1022.8 1022.7 0.4
28/01:30am 12.6 7.7 8.5 76 2.0 SW 24 32 13 17 1022.9 1022.8 0.4
28/01:00am 12.8 7.0 8.1 73 2.3 SW 28 37 15 20 1022.9 1022.8 0.4
28/12:30am 12.7 6.4 7.6 71 2.5 SSW 30 39 16 21 1023.1 1023.0 0.4
28/12:00am 12.7 6.4 7.6 71 2.5 SW 30 39 16 21 1023.1 1023.0 0.4
 
Date/Time
EDT
Temp
°C
App
Temp
°C
Dew
Point
Rel
Hum
%
Delta-T
°C
Wind Press
QNH
hPa
Press
MSL
hPa
Rain
since 9 am
mm
Dir
 
Spd
km/h
Gust
km/h
Spd
kts
Gust
kts
27/11:30pm 12.8 6.0 7.5 70 2.6 SW 33 43 18 23 1023.2 1023.1 0.4
27/11:00pm 12.5 5.3 7.8 73 2.3 SW 35 46 19 25 1023.2 1023.1 0.4
27/10:30pm 12.7 5.0 8.6 76 2.1 SW 39 46 21 25 1023.2 1023.1 0.4
27/10:00pm 12.9 4.7 8.4 74 2.2 SW 41 48 22 26 1023.1 1023.0 0.4
27/09:30pm 13.3 5.6 7.3 67 2.9 SW 37 46 20 25 1023.0 1022.9 0.4
27/09:00pm 13.2 4.9 9.3 77 2.0 SW 43 56 23 30 1022.8 1022.7 0.4
27/08:30pm 12.7 4.8 9.5 81 1.6 SW 41 54 22 29 1022.4 1022.3 0.4
27/08:04pm 13.0 6.5 8.3 73 2.3 SW 32 50 17 27 1022.1 1022.0 0.4
27/08:00pm 13.0 6.3 8.3 73 2.3 SW 33 50 18 27 1022.1 1022.0 0.4
27/07:30pm 13.0 6.1 8.7 75 2.2 SW 35 50 19 27 1021.7 1021.6 0.4
27/07:02pm 13.0 6.1 8.7 75 2.2 SW 35 54 19 29 1021.5 1021.4 0.4
27/07:00pm 12.8 5.4 8.3 74 2.2 SW 37 54 20 29 1021.5 1021.4 0.4
27/06:47pm 12.8 5.1 8.7 76 2.1 SW 39 57 21 31 1021.3 1021.2 0.4
27/06:30pm 12.8 4.3 8.5 75 2.1 SW 43 56 23 30 1021.1 1021.0 0.4
27/06:00pm 12.8 4.0 9.4 80 1.7 SW 46 57 25 31 1020.6 1020.5 0.4
27/05:30pm 12.9 2.5 9.4 79 1.8 SW 54 65 29 35 1020.3 1020.2 0.4
27/05:00pm 13.1 3.2 9.9 81 1.6 SW 52 65 28 35 1020.2 1020.1 0.4
27/04:30pm 13.2 3.0 10.0 81 1.7 SW 54 69 29 37 1020.0 1019.9 0.4
27/04:00pm 13.4 2.9 10.2 81 1.7 SW 56 70 30 38 1019.8 1019.7 0.4
27/03:51pm 13.5 3.1 10.5 82 1.6 SW 56 67 30 36 1019.8 1019.7 0.4
27/03:30pm 13.3 3.4 11.0 86 1.2 SW 54 65 29 35 1019.8 1019.7 0.4
27/03:25pm 13.1 3.6 11.0 87 1.1 SW 52 65 28 35 1019.8 1019.7 0.4
27/03:00pm 12.9 2.9 10.8 87 1.1 SW 54 70 29 38 1019.5 1019.4 0.4
27/02:30pm 13.5 3.6 11.0 85 1.3 SW 54 70 29 38 1019.5 1019.4 0.4
27/02:05pm 13.3 4.5 11.0 86 1.2 SW 48 69 26 37 1019.4 1019.3 0.4
27/02:00pm 13.3 4.6 11.2 87 1.1 SW 48 65 26 35 1019.4 1019.3 0.4
27/01:33pm 13.6 3.8 11.3 86 1.2 SW 54 74 29 40 1019.4 1019.3 0.4
27/01:30pm 13.3 3.4 11.2 87 1.1 SW 54 67 29 36 1019.3 1019.2 0.4
27/01:06pm 13.2 2.4 11.1 87 1.1 SW 59 78 32 42 1019.2 1019.1 0.4
27/01:04pm 13.1 2.2 11.0 87 1.1 SW 59 78 32 42 1019.2 1019.1 0.4
27/01:00pm 13.4 2.7 11.5 88 1.0 SW 59 70 32 38 1019.2 1019.1 0.4
27/12:31pm 13.3 2.5 11.2 87 1.1 SW 59 78 32 42 1019.1 1019.0 0.4
27/12:30pm 13.1 1.8 11.0 87 1.1 SW 61 78 33 42 1019.1 1019.0 0.4
27/12:09pm 12.8 1.2 11.0 89 0.9 SW 63 83 34 45 1018.9 1018.8 0.4
27/12:00pm 12.9 0.9 11.0 88 1.0 SW 65 80 35 43 1018.8 1018.7 0.4
27/11:37am 12.7 0.7 11.1 90 0.8 SW 65 80 35 43 1018.6 1018.5 0.4
27/11:32am 12.9 1.3 11.1 89 0.9 SW 63 80 34 43 1018.5 1018.4 0.2
27/11:30am 13.3 1.9 11.7 90 0.9 SW 63 80 34 43 1018.5 1018.4 0.2
27/11:21am 13.1 1.5 11.3 89 1.0 SW 63 82 34 44 1018.4 1018.3 0.2
27/11:18am 13.1 1.5 11.3 89 1.0 SW 63 82 34 44 1018.3 1018.1 0.2
27/11:14am 12.9 0.9 11.1 89 0.9 SW 65 82 35 44 1018.4 1018.3 0.2
27/11:00am 12.7 0.0 11.1 90 0.8 SW 69 83 37 45 1018.1 1017.9 0.2

Other Formats:

Comma delimited format used in spreadsheet applications
http://www.bom.gov.au/fwo/IDT60801/IDT60801.95954.axf

JavaScript Object Notation format (JSON) in row-major order
http://www.bom.gov.au/fwo/IDT60801/IDT60801.95954.json